Airfield :
LOGIN :

Register | Disclaimer

   EN    FR    IT 

 










Legend :    VFR   Marginal VFR   IFR   Intensive IFR   Very Intensive IFR
Visi :
Ceiling :
>= 8 km
>= 3000ft
5 to 8 km
1000 to 3000 ft
1500m to 5 km
500 to 1000 ft
800 to 1500m
200 to 500 ft
< 800m
< 200 ft
Symbols :   Thunderstorms  Fog  Heavy snow  Heavy precipitations  Wind > 20 kt
SIGMETs :     Misc.  Thunderstorms  Icing  Turbulence  Mountain Waves  Volcanic Ashes







- Airport Elevation : 313 ft
- IATA code : LEH
- Download approach charts


LFOH - Le Havre Octeville

CURRENT METAR :
  • 210800Z AUTO 11007KT 4400 BR NSC 01/M01 Q1010 TEMPO BKN007 BECMG 7000 NSW

EXPIRED METARs :
  • 210730Z AUTO 13006KT 5000 BR NSC 01/M01 Q1010 TEMPO BKN007
  • 210700Z AUTO 14008KT 6000 NSC 01/M01 Q1009 TEMPO 4000 BR BKN007
  • 210630Z AUTO 13006KT 6000 NSC 01/M01 Q1009 TEMPO 4000 BR BKN007
  • 210600Z AUTO 13007KT 6000 NSC 01/M00 Q1008 TEMPO BKN007 BECMG 4000 BR
  • 210530Z AUTO 13006KT 6000 FEW013 01/M01 Q1008 TEMPO BKN007 BECMG 4000 BR

TAF AMD TAF LFOH
Valid from the 21 at 06:00 until the 22 at 06:00 UTC


210657Z 2106/2206 15008KT 7000 NSC
TEMPO 2106/2109 4000 BR BKN007
BECMG 2203/2206 1200 BR OVC002
ATIS : +33 2 35 54 64 93
No reported NOTAMs for that airfield.



MET'MAP, your aeronautical weather chart ! - Copyright ORBIFLY December 2007 - Disclaimer

ORBIFLY MET'MAP TEAM :

Programming & Development : Alexandra Zaïnal
Concept & Development : Baudouin d'Aumeries
Co-Development & Prog : Marc-Olivier Méhu
Technical & hardware support : Manuel Goepfert

Contact : metmap@orbifly.com




SOURCES & CREDITS :

   NOAA